createdAt,value
2017-07-03T00:01:16.033Z,101732
2017-07-03T00:03:44.238Z,101725
2017-07-03T00:06:12.406Z,101721
2017-07-03T00:08:40.616Z,101731
2017-07-03T00:11:08.814Z,101728
2017-07-03T00:13:37.007Z,101726
2017-07-03T00:16:05.200Z,101730
2017-07-03T00:18:34.151Z,101729
2017-07-03T00:21:02.339Z,101723
2017-07-03T00:23:30.931Z,101735
2017-07-03T00:25:59.123Z,101731
2017-07-03T00:28:28.083Z,101736
2017-07-03T00:30:56.321Z,101735
2017-07-03T00:33:24.536Z,101733
2017-07-03T00:35:52.703Z,101735
2017-07-03T00:38:20.922Z,101734
2017-07-03T00:40:49.893Z,101735
2017-07-03T00:43:18.084Z,101735
2017-07-03T00:45:47.076Z,101740
2017-07-03T00:48:16.070Z,101734
2017-07-03T00:50:45.035Z,101740
2017-07-03T00:53:13.270Z,101733
2017-07-03T00:55:41.460Z,101740
2017-07-03T00:58:09.648Z,101731
2017-07-03T01:00:37.871Z,101733
2017-07-03T01:03:06.068Z,101742
2017-07-03T01:05:34.274Z,101735
2017-07-03T01:08:02.470Z,101733
2017-07-03T01:10:30.662Z,101735
2017-07-03T01:12:59.626Z,101740
2017-07-03T01:15:27.861Z,101722
2017-07-03T01:17:56.064Z,101733
2017-07-03T01:20:24.256Z,101717
2017-07-03T01:22:52.456Z,101723
2017-07-03T01:25:21.407Z,101725
2017-07-03T01:27:49.612Z,101734
2017-07-03T01:30:17.861Z,101734
2017-07-03T01:32:46.073Z,101732
2017-07-03T01:35:14.290Z,101738
2017-07-03T01:37:42.524Z,101734
2017-07-03T01:40:11.491Z,101729
2017-07-03T01:42:39.675Z,101728
2017-07-03T01:45:07.882Z,101740
2017-07-03T01:47:36.848Z,101737
2017-07-03T01:50:05.059Z,101739
2017-07-03T01:52:33.299Z,101733
2017-07-03T01:55:01.477Z,101735
2017-07-03T01:57:29.649Z,101727
2017-07-03T01:59:58.243Z,101734
2017-07-03T02:02:27.204Z,101729
2017-07-03T02:04:55.393Z,101728
2017-07-03T02:07:23.596Z,101727
2017-07-03T02:09:52.562Z,101726
2017-07-03T02:12:20.750Z,101728
2017-07-03T02:14:49.972Z,101721
2017-07-03T02:17:18.144Z,101742
2017-07-03T02:19:47.079Z,101736
2017-07-03T02:22:15.284Z,101728
2017-07-03T02:24:43.453Z,101737
2017-07-03T02:27:11.629Z,101733
2017-07-03T02:29:40.228Z,101742
2017-07-03T02:32:08.404Z,101733
2017-07-03T02:34:36.591Z,101741
2017-07-03T02:37:04.802Z,101735
2017-07-03T02:39:33.005Z,101732
2017-07-03T02:42:01.222Z,101730
2017-07-03T02:44:30.194Z,101731
2017-07-03T02:46:58.402Z,101735
2017-07-03T02:49:26.576Z,101736
2017-07-03T02:51:54.813Z,101738
2017-07-03T02:54:22.990Z,101730
2017-07-03T02:56:51.175Z,101731
2017-07-03T02:59:19.393Z,101734
2017-07-03T03:01:47.599Z,101719
2017-07-03T03:04:15.769Z,101726
2017-07-03T03:06:43.980Z,101727
2017-07-03T03:09:12.967Z,101730
2017-07-03T03:11:41.175Z,101733
2017-07-03T03:14:09.414Z,101728
2017-07-03T03:16:37.611Z,101736
2017-07-03T03:19:06.548Z,101740
2017-07-03T03:21:34.783Z,101743
2017-07-03T03:24:03.716Z,101737
2017-07-03T03:26:31.912Z,101733
2017-07-03T03:29:00.153Z,101743
2017-07-03T03:31:28.325Z,101736
2017-07-03T03:33:56.527Z,101735
2017-07-03T03:36:25.148Z,101737
2017-07-03T03:38:54.104Z,101744
2017-07-03T03:41:22.292Z,101738
2017-07-03T03:43:50.523Z,101740
2017-07-03T03:46:18.693Z,101737
2017-07-03T03:48:46.897Z,101733
2017-07-03T03:51:15.137Z,101732
2017-07-03T03:53:43.328Z,101733
2017-07-03T03:56:11.513Z,101730
2017-07-03T03:58:39.753Z,101741
2017-07-03T04:01:08.712Z,101744
2017-07-03T04:03:36.899Z,101739
2017-07-03T04:06:07.711Z,101745
2017-07-03T04:08:36.011Z,101744
2017-07-03T04:11:04.201Z,101746
2017-07-03T04:13:32.415Z,101744
2017-07-03T04:16:00.589Z,101743
2017-07-03T04:18:28.761Z,101738
2017-07-03T04:20:56.991Z,101739
2017-07-03T04:23:25.207Z,101743
2017-07-03T04:25:54.159Z,101739
2017-07-03T04:28:22.375Z,101747
2017-07-03T04:30:51.332Z,101743
2017-07-03T04:33:19.504Z,101740
2017-07-03T04:35:47.731Z,101750
2017-07-03T04:38:15.900Z,101744
2017-07-03T04:40:44.065Z,101749
2017-07-03T04:43:13.451Z,101746
2017-07-03T04:45:41.642Z,101749
2017-07-03T04:48:10.595Z,101744
2017-07-03T04:50:38.806Z,101737
2017-07-03T04:53:07.787Z,101732
2017-07-03T04:55:36.769Z,101725
2017-07-03T04:58:05.003Z,101727
2017-07-03T05:00:33.206Z,101720
2017-07-03T05:03:01.400Z,101722
2017-07-03T05:05:29.619Z,101723
2017-07-03T05:07:57.800Z,101721
2017-07-03T05:10:25.994Z,101726
2017-07-03T05:12:54.231Z,101720
2017-07-03T05:15:23.180Z,101718
2017-07-03T05:17:51.367Z,101722
2017-07-03T05:20:19.583Z,101721
2017-07-03T05:22:47.791Z,101725
2017-07-03T05:25:15.973Z,101725
2017-07-03T05:27:44.169Z,101733
2017-07-03T05:30:12.375Z,101740
2017-07-03T05:32:41.338Z,101739
2017-07-03T05:35:09.576Z,101740
2017-07-03T05:37:37.749Z,101741
2017-07-03T05:40:05.954Z,101743
2017-07-03T05:42:40.011Z,101745
2017-07-03T05:45:08.195Z,101744
2017-07-03T05:47:37.266Z,101746
2017-07-03T05:50:06.285Z,101742
2017-07-03T05:52:34.475Z,101760
2017-07-03T05:55:02.669Z,101756
2017-07-03T05:57:30.864Z,101758
2017-07-03T05:59:59.036Z,101745
2017-07-03T06:02:27.219Z,101753
2017-07-03T06:04:55.445Z,101756
2017-07-03T06:07:23.644Z,101751
2017-07-03T06:09:51.828Z,101755
2017-07-03T06:12:20.024Z,101750
2017-07-03T06:14:48.244Z,101749
2017-07-03T06:17:16.428Z,101749
2017-07-03T06:19:44.655Z,101746
2017-07-03T06:22:12.855Z,101743
2017-07-03T06:24:41.029Z,101745
2017-07-03T06:27:09.269Z,101744
2017-07-03T06:29:37.491Z,101749
2017-07-03T06:32:05.679Z,101735
2017-07-03T06:34:33.924Z,101732
2017-07-03T06:37:02.887Z,101728
2017-07-03T06:39:31.071Z,101742
2017-07-03T06:41:59.299Z,101738
2017-07-03T06:44:27.510Z,101729
2017-07-03T06:46:55.732Z,101737
2017-07-03T06:49:23.969Z,101750
2017-07-03T06:51:52.174Z,101747
2017-07-03T06:54:20.367Z,101755
2017-07-03T06:56:48.577Z,101765
2017-07-03T06:59:16.759Z,101761
2017-07-03T07:01:44.970Z,101758
2017-07-03T07:04:13.933Z,101764
2017-07-03T07:06:42.124Z,101764
2017-07-03T07:09:11.083Z,101760
2017-07-03T07:11:39.303Z,101762
2017-07-03T07:14:08.259Z,101748
2017-07-03T07:16:36.491Z,101752
2017-07-03T07:19:04.725Z,101759
2017-07-03T07:21:32.935Z,101755
2017-07-03T07:24:01.138Z,101757
2017-07-03T07:26:29.391Z,101763
2017-07-03T07:28:57.585Z,101769
2017-07-03T07:31:25.846Z,101771
2017-07-03T07:33:54.076Z,101760
2017-07-03T07:36:22.271Z,101759
2017-07-03T07:38:51.231Z,101765
2017-07-03T07:41:19.474Z,101764
2017-07-03T07:43:47.642Z,101771
2017-07-03T07:46:15.833Z,101753
2017-07-03T07:48:44.073Z,101763
2017-07-03T07:51:12.256Z,101771
2017-07-03T07:53:40.462Z,101772
2017-07-03T07:56:08.684Z,101763
2017-07-03T07:58:37.644Z,101775
2017-07-03T08:01:05.840Z,101767
2017-07-03T08:03:34.079Z,101777
2017-07-03T08:06:02.291Z,101781
2017-07-03T08:08:30.461Z,101775
2017-07-03T08:10:58.684Z,101783
2017-07-03T08:13:26.891Z,101773
2017-07-03T08:15:55.066Z,101776
2017-07-03T08:18:23.265Z,101765
2017-07-03T08:20:51.460Z,101769
2017-07-03T08:23:20.406Z,101765
2017-07-03T08:25:48.627Z,101765
2017-07-03T08:28:17.601Z,101754
2017-07-03T08:30:45.795Z,101756
2017-07-03T08:33:14.802Z,101758
2017-07-03T08:35:43.027Z,101751
2017-07-03T08:38:11.222Z,101747
2017-07-03T08:40:39.478Z,101750
2017-07-03T08:43:07.673Z,101753
2017-07-03T08:45:35.878Z,101745
2017-07-03T08:48:04.122Z,101751
2017-07-03T08:50:32.304Z,101752
2017-07-03T08:53:00.500Z,101762
2017-07-03T08:55:29.506Z,101756
2017-07-03T08:57:57.722Z,101764
2017-07-03T09:00:25.934Z,101761
2017-07-03T09:02:54.924Z,101756
2017-07-03T09:05:23.872Z,101758
2017-07-03T09:07:52.071Z,101755
2017-07-03T09:10:20.315Z,101762
2017-07-03T09:12:48.535Z,101750
2017-07-03T09:15:16.713Z,101748
2017-07-03T09:17:44.939Z,101746
2017-07-03T09:20:13.116Z,101749
2017-07-03T09:22:41.299Z,101750
2017-07-03T09:25:09.537Z,101750
2017-07-03T09:27:37.777Z,101744
2017-07-03T09:30:05.970Z,101741
2017-07-03T09:32:34.940Z,101752
2017-07-03T09:35:03.144Z,101743
2017-07-03T09:37:32.085Z,101744
2017-07-03T09:40:00.298Z,101751
2017-07-03T09:42:28.491Z,101745
2017-07-03T09:44:56.699Z,101738
2017-07-03T09:47:24.909Z,101734
2017-07-03T09:49:53.095Z,101745
2017-07-03T09:52:21.287Z,101744
2017-07-03T09:54:50.276Z,101747
2017-07-03T09:57:18.484Z,101738
2017-07-03T09:59:46.660Z,101744
2017-07-03T10:02:14.891Z,101733
2017-07-03T10:04:43.097Z,101719
2017-07-03T10:07:12.051Z,101721
2017-07-03T10:09:40.295Z,101719
2017-07-03T10:12:08.491Z,101724
2017-07-03T10:14:36.685Z,101708
2017-07-03T10:17:05.288Z,101707
2017-07-03T10:19:33.488Z,101710
2017-07-03T10:22:01.703Z,101714
2017-07-03T10:24:29.947Z,101711
2017-07-03T10:26:58.120Z,101711
2017-07-03T10:29:26.326Z,101696
2017-07-03T10:31:54.598Z,101689
2017-07-03T10:34:22.807Z,101713
2017-07-03T10:36:51.772Z,101699
2017-07-03T10:39:20.025Z,101682
2017-07-03T10:41:48.238Z,101673
2017-07-03T10:44:16.436Z,101669
2017-07-03T10:46:44.663Z,101680
2017-07-03T10:49:12.890Z,101690
2017-07-03T10:51:41.075Z,101676
2017-07-03T10:54:09.299Z,101684
2017-07-03T10:56:37.493Z,101673
2017-07-03T10:59:05.678Z,101682
2017-07-03T11:01:33.891Z,101685
2017-07-03T11:04:02.076Z,101689
2017-07-03T11:06:30.261Z,101694
2017-07-03T11:08:58.476Z,101698
2017-07-03T11:11:26.688Z,101687
2017-07-03T11:13:54.910Z,101672
2017-07-03T11:16:23.145Z,101672
2017-07-03T11:18:51.359Z,101679
2017-07-03T11:21:19.555Z,101668
2017-07-03T11:23:48.558Z,101673
2017-07-03T11:26:17.515Z,101673
2017-07-03T11:28:45.705Z,101663
2017-07-03T11:31:13.935Z,101666
2017-07-03T11:33:42.128Z,101649
2017-07-03T11:36:10.319Z,101653
2017-07-03T11:38:38.548Z,101657
2017-07-03T11:41:06.732Z,101657
2017-07-03T11:43:34.912Z,101661
2017-07-03T11:46:03.148Z,101659
2017-07-03T11:48:31.359Z,101655
2017-07-03T11:50:59.550Z,101648
2017-07-03T11:53:27.786Z,101656
2017-07-03T11:55:56.744Z,101638
2017-07-03T11:58:24.927Z,101641
2017-07-03T12:00:53.136Z,101652
2017-07-03T12:03:21.338Z,101632
2017-07-03T12:05:49.527Z,101637
2017-07-03T12:08:17.754Z,101627
2017-07-03T12:10:46.704Z,101623
2017-07-03T12:13:14.877Z,101617
2017-07-03T12:15:43.094Z,101628
2017-07-03T12:18:11.279Z,101619
2017-07-03T12:20:40.231Z,101614
2017-07-03T12:23:08.451Z,101619
2017-07-03T12:25:37.403Z,101613
2017-07-03T12:28:05.588Z,101618
2017-07-03T12:30:33.821Z,101608
2017-07-03T12:33:01.999Z,101604
2017-07-03T12:35:30.192Z,101596
2017-07-03T12:37:58.412Z,101598
2017-07-03T12:40:27.374Z,101615
2017-07-03T12:42:55.579Z,101600
2017-07-03T12:45:24.584Z,101602
2017-07-03T12:47:53.560Z,101604
2017-07-03T12:50:22.531Z,101575
2017-07-03T12:52:50.782Z,101577
2017-07-03T12:55:18.994Z,101576
2017-07-03T12:57:47.191Z,101571
2017-07-03T13:00:16.177Z,101571
2017-07-03T13:02:45.158Z,101571
2017-07-03T13:05:13.343Z,101575
2017-07-03T13:07:41.589Z,101576
2017-07-03T13:10:09.769Z,101570
2017-07-03T13:12:37.948Z,101559
2017-07-03T13:15:06.179Z,101557
2017-07-03T13:17:34.371Z,101555
2017-07-03T13:20:02.553Z,101567
2017-07-03T13:22:30.769Z,101563
2017-07-03T13:24:58.952Z,101555
2017-07-03T13:27:27.911Z,101544
2017-07-03T13:29:56.232Z,101560
2017-07-03T13:32:25.183Z,101549
2017-07-03T13:34:53.385Z,101541
2017-07-03T13:37:22.379Z,101538
2017-07-03T13:39:51.336Z,101542
2017-07-03T13:42:19.542Z,101530
2017-07-03T13:44:47.764Z,101532
2017-07-03T13:47:15.938Z,101526
2017-07-03T13:49:44.150Z,101508
2017-07-03T13:52:12.450Z,101518
2017-07-03T13:54:41.395Z,101517
2017-07-03T13:57:09.569Z,101522
2017-07-03T13:59:37.789Z,101509
2017-07-03T14:02:06.728Z,101515
2017-07-03T14:04:34.916Z,101514
2017-07-03T14:07:03.137Z,101507
2017-07-03T14:09:32.068Z,101504
2017-07-03T14:12:00.257Z,101498
2017-07-03T14:14:28.492Z,101501
2017-07-03T14:16:57.601Z,101501
2017-07-03T14:19:25.817Z,101510
2017-07-03T14:21:54.051Z,101500
2017-07-03T14:24:22.320Z,101497
2017-07-03T14:26:51.262Z,101511
2017-07-03T14:29:19.483Z,101497
2017-07-03T14:31:48.462Z,101494
2017-07-03T14:34:16.672Z,101488
2017-07-03T14:36:44.891Z,101485
2017-07-03T14:39:13.056Z,101479
2017-07-03T14:41:41.261Z,101481
2017-07-03T14:44:09.465Z,101465
2017-07-03T14:46:37.646Z,101463
2017-07-03T14:49:05.853Z,101467
2017-07-03T14:51:34.085Z,101463
2017-07-03T14:54:03.058Z,101477
2017-07-03T14:56:31.277Z,101440
2017-07-03T14:58:59.503Z,101441
2017-07-03T15:01:27.714Z,101426
2017-07-03T15:03:55.906Z,101418
2017-07-03T15:06:24.155Z,101405
2017-07-03T15:08:52.358Z,101400
2017-07-03T15:11:20.575Z,101401
2017-07-03T15:13:48.809Z,101390
2017-07-03T15:16:17.022Z,101386
2017-07-03T15:18:45.231Z,101380
2017-07-03T15:21:14.215Z,101383
2017-07-03T15:23:43.174Z,101383
2017-07-03T15:26:11.374Z,101383
2017-07-03T15:28:39.591Z,101394
2017-07-03T15:31:07.809Z,101383
2017-07-03T15:33:36.010Z,101395
2017-07-03T15:36:04.984Z,101398
2017-07-03T15:38:33.192Z,101389
2017-07-03T15:41:01.387Z,101392
2017-07-03T15:43:29.615Z,101383
2017-07-03T15:45:57.800Z,101408
2017-07-03T15:48:26.000Z,101437
2017-07-03T15:50:54.228Z,101470
2017-07-03T15:53:22.404Z,101426
2017-07-03T15:55:50.593Z,101431
2017-07-03T15:58:18.812Z,101424
2017-07-03T16:00:46.994Z,101420
2017-07-03T16:03:15.181Z,101418
2017-07-03T16:05:43.408Z,101420
2017-07-03T16:08:12.362Z,101408
2017-07-03T16:10:40.587Z,101404
2017-07-03T16:13:08.801Z,101392
2017-07-03T16:15:36.981Z,101391
2017-07-03T16:18:05.175Z,101390
2017-07-03T16:20:33.401Z,101378
2017-07-03T16:23:01.635Z,101370
2017-07-03T16:25:29.828Z,101361
2017-07-03T16:27:58.813Z,101360
2017-07-03T16:30:27.792Z,101338
2017-07-03T16:32:55.994Z,101349
2017-07-03T16:35:24.987Z,101342
2017-07-03T16:37:53.936Z,101344
2017-07-03T16:40:22.149Z,101343
2017-07-03T16:42:51.157Z,101361
2017-07-03T16:45:19.380Z,101355
2017-07-03T16:47:47.595Z,101355
2017-07-03T16:50:16.103Z,101348
2017-07-03T16:52:44.280Z,101348
2017-07-03T16:55:12.471Z,101348
2017-07-03T16:57:40.697Z,101335
2017-07-03T17:00:09.670Z,101341
2017-07-03T17:02:37.861Z,101350
2017-07-03T17:05:06.069Z,101368
2017-07-03T17:07:34.279Z,101366
2017-07-03T17:10:02.455Z,101384
2017-07-03T17:12:30.677Z,101399
2017-07-03T17:14:59.636Z,101439
2017-07-03T17:17:27.829Z,101451
2017-07-03T17:19:56.830Z,101439
2017-07-03T17:22:25.067Z,101441
2017-07-03T17:24:53.274Z,101437
2017-07-03T17:27:21.516Z,101434
2017-07-03T17:29:49.765Z,101427
2017-07-03T17:32:18.068Z,101420
2017-07-03T17:34:46.348Z,101421
2017-07-03T17:37:14.557Z,101423
2017-07-03T17:39:42.735Z,101427
2017-07-03T17:42:10.955Z,101418
2017-07-03T17:44:39.157Z,101423
2017-07-03T17:47:07.391Z,101421
2017-07-03T17:49:35.676Z,101422
2017-07-03T17:52:03.921Z,101419
2017-07-03T17:54:32.956Z,101438
2017-07-03T17:57:01.272Z,101426
2017-07-03T17:59:29.561Z,101450
2017-07-03T18:01:58.573Z,101430
2017-07-03T18:04:27.593Z,101439
2017-07-03T18:06:55.773Z,101443
2017-07-03T18:09:24.024Z,101439
2017-07-03T18:11:52.275Z,101435
2017-07-03T18:14:20.449Z,101438
2017-07-03T18:16:48.639Z,101447
2017-07-03T18:19:17.726Z,101448
2017-07-03T18:21:45.923Z,101446
2017-07-03T18:24:14.888Z,101443
2017-07-03T18:26:43.113Z,101435
2017-07-03T18:29:11.293Z,101435
2017-07-03T18:31:39.489Z,101429
2017-07-03T18:34:08.540Z,101434
2017-07-03T18:36:36.769Z,101423
2017-07-03T18:39:04.990Z,101437
2017-07-03T18:41:33.212Z,101424
2017-07-03T18:44:02.171Z,101431
2017-07-03T18:46:30.415Z,101426
2017-07-03T18:48:58.672Z,101417
2017-07-03T18:51:26.916Z,101421
2017-07-03T18:53:55.137Z,101422
2017-07-03T18:56:23.357Z,101430
2017-07-03T18:58:51.592Z,101433
2017-07-03T19:01:19.815Z,101421
2017-07-03T19:03:48.162Z,101431
2017-07-03T19:06:16.399Z,101423
2017-07-03T19:08:44.604Z,101421
2017-07-03T19:11:12.838Z,101415
2017-07-03T19:13:41.028Z,101414
2017-07-03T19:16:09.263Z,101418
2017-07-03T19:18:37.525Z,101422
2017-07-03T19:21:05.750Z,101428
2017-07-03T19:23:33.953Z,101419
2017-07-03T19:26:02.959Z,101421
2017-07-03T19:28:31.170Z,101422
2017-07-03T19:30:59.384Z,101423
2017-07-03T19:33:28.387Z,101424
2017-07-03T19:35:57.333Z,101419
2017-07-03T19:38:25.541Z,101422
2017-07-03T19:40:53.808Z,101425
2017-07-03T19:43:22.096Z,101427
2017-07-03T19:45:50.365Z,101427
2017-07-03T19:48:18.601Z,101431
2017-07-03T19:50:46.829Z,101429
2017-07-03T19:53:15.098Z,101431
2017-07-03T19:55:43.310Z,101425
2017-07-03T19:58:11.559Z,101426
2017-07-03T20:00:40.534Z,101439
2017-07-03T20:03:08.816Z,101440
2017-07-03T20:05:37.094Z,101437
2017-07-03T20:08:05.350Z,101447
2017-07-03T20:10:33.600Z,101439
2017-07-03T20:13:01.822Z,101433
2017-07-03T20:15:29.998Z,101437
2017-07-03T20:17:58.209Z,101430
2017-07-03T20:20:26.393Z,101435
2017-07-03T20:22:54.584Z,101433
2017-07-03T20:25:22.824Z,101442
2017-07-03T20:27:51.792Z,101438
2017-07-03T20:30:20.038Z,101444
2017-07-03T20:32:48.259Z,101442
2017-07-03T20:35:17.239Z,101451
2017-07-03T20:37:45.454Z,101456
2017-07-03T20:40:13.691Z,101447
2017-07-03T20:42:41.892Z,101454
2017-07-03T20:45:10.843Z,101457
2017-07-03T20:47:39.093Z,101452
2017-07-03T20:50:07.293Z,101459
2017-07-03T20:52:35.479Z,101455
2017-07-03T20:55:03.722Z,101446
2017-07-03T20:57:31.903Z,101457
2017-07-03T21:00:00.137Z,101450
2017-07-03T21:02:29.155Z,101448
2017-07-03T21:04:57.329Z,101447
2017-07-03T21:07:25.511Z,101438
2017-07-03T21:09:53.763Z,101454
2017-07-03T21:12:21.942Z,101429
2017-07-03T21:14:50.158Z,101439
2017-07-03T21:17:18.398Z,101441
2017-07-03T21:19:46.614Z,101439
2017-07-03T21:22:14.798Z,101442
2017-07-03T21:24:43.045Z,101448
2017-07-03T21:27:11.255Z,101456
2017-07-03T21:29:39.448Z,101459
2017-07-03T21:32:07.674Z,101459
2017-07-03T21:34:35.846Z,101457
2017-07-03T21:37:04.026Z,101465
2017-07-03T21:39:32.225Z,101468
2017-07-03T21:42:00.410Z,101469
2017-07-03T21:44:29.395Z,101463
2017-07-03T21:46:57.616Z,101465
2017-07-03T21:49:25.832Z,101461
2017-07-03T21:51:54.080Z,101468
2017-07-03T21:54:22.309Z,101469
2017-07-03T21:56:51.309Z,101460
2017-07-03T21:59:19.520Z,101468
2017-07-03T22:01:47.748Z,101470
2017-07-03T22:04:15.951Z,101460
2017-07-03T22:06:44.924Z,101465
2017-07-03T22:09:13.227Z,101465
2017-07-03T22:11:41.655Z,101461
2017-07-03T22:14:09.906Z,101460
2017-07-03T22:16:38.125Z,101454
2017-07-03T22:19:12.312Z,101469
2017-07-03T22:21:41.414Z,101455
2017-07-03T22:24:10.181Z,101464
2017-07-03T22:26:38.389Z,101475
2017-07-03T22:29:06.837Z,101469
2017-07-03T22:31:35.032Z,101461
2017-07-03T22:34:04.166Z,101463
2017-07-03T22:36:32.435Z,101475
2017-07-03T22:39:00.665Z,101475
2017-07-03T22:41:28.841Z,101475
2017-07-03T22:43:57.088Z,101467
2017-07-03T22:46:26.047Z,101469
2017-07-03T22:48:54.309Z,101460
2017-07-03T22:51:22.531Z,101466
2017-07-03T22:53:51.512Z,101457
2017-07-03T22:56:19.691Z,101460
2017-07-03T22:58:48.703Z,101451
2017-07-03T23:01:16.915Z,101457
2017-07-03T23:03:45.144Z,101453
2017-07-03T23:06:14.125Z,101455
2017-07-03T23:08:42.351Z,101460
2017-07-03T23:11:10.524Z,101461
2017-07-03T23:13:38.751Z,101460
2017-07-03T23:16:06.945Z,101458
2017-07-03T23:18:35.136Z,101449
2017-07-03T23:21:03.354Z,101457
2017-07-03T23:23:31.567Z,101459
2017-07-03T23:26:00.502Z,101467
2017-07-03T23:28:28.720Z,101464
2017-07-03T23:30:57.687Z,101458
2017-07-03T23:33:25.909Z,101465
2017-07-03T23:35:54.151Z,101469
2017-07-03T23:38:22.325Z,101461
2017-07-03T23:40:50.511Z,101460
2017-07-03T23:43:18.725Z,101462
2017-07-03T23:45:46.929Z,101455
2017-07-03T23:48:15.135Z,101459
2017-07-03T23:50:43.347Z,101461
2017-07-03T23:53:11.559Z,101454
2017-07-03T23:55:39.761Z,101450
2017-07-03T23:58:07.986Z,101456
